createdAt,value
2018-10-12T00:00:06.775Z,10.10
2018-10-12T00:02:35.473Z,9.20
2018-10-12T00:05:04.067Z,10.57
2018-10-12T00:07:32.535Z,9.87
2018-10-12T00:10:00.955Z,9.40
2018-10-12T00:12:29.492Z,7.50
2018-10-12T00:14:58.162Z,13.10
2018-10-12T00:17:26.749Z,8.60
2018-10-12T00:19:55.338Z,8.77
2018-10-12T00:22:23.901Z,9.30
2018-10-12T00:24:52.705Z,13.67
2018-10-12T00:27:21.232Z,12.33
2018-10-12T00:29:49.817Z,10.60
2018-10-12T00:32:18.522Z,11.07
2018-10-12T00:34:47.283Z,16.83
2018-10-12T00:37:15.850Z,16.53
2018-10-12T00:39:44.474Z,17.17
2018-10-12T00:42:12.930Z,11.00
2018-10-12T00:44:42.454Z,13.33
2018-10-12T00:47:11.081Z,13.23
2018-10-12T00:49:40.328Z,9.20
2018-10-12T00:52:08.805Z,16.27
2018-10-12T00:54:37.361Z,15.97
2018-10-12T00:57:05.949Z,16.77
2018-10-12T00:59:34.782Z,15.83
2018-10-12T01:02:03.582Z,14.30
2018-10-12T01:04:32.969Z,9.97
2018-10-12T01:07:02.371Z,11.47
2018-10-12T01:09:30.904Z,9.20
2018-10-12T01:12:39.151Z,11.60
2018-10-12T01:15:08.213Z,8.50
2018-10-12T01:17:43.469Z,6.97
2018-10-12T01:20:12.001Z,8.23
2018-10-12T01:22:40.625Z,14.33
2018-10-12T01:25:09.836Z,10.70
2018-10-12T01:27:38.678Z,15.80
2018-10-12T01:30:07.495Z,14.37
2018-10-12T01:32:41.433Z,14.13
2018-10-12T01:35:10.178Z,13.10
2018-10-12T01:37:38.769Z,14.43
2018-10-12T01:40:07.374Z,14.77
2018-10-12T01:42:35.907Z,14.70
2018-10-12T01:45:04.442Z,13.93
2018-10-12T01:47:32.950Z,12.30
2018-10-12T01:50:01.526Z,13.67
2018-10-12T01:52:30.106Z,13.97
2018-10-12T01:54:58.603Z,13.10
2018-10-12T01:57:27.235Z,10.63
2018-10-12T01:59:56.765Z,11.13
2018-10-12T02:02:25.513Z,13.03
2018-10-12T02:04:54.225Z,12.73
2018-10-12T02:07:22.816Z,12.17
2018-10-12T02:09:51.558Z,11.20
2018-10-12T02:12:20.256Z,8.73
2018-10-12T02:14:49.149Z,9.47
2018-10-12T02:17:17.752Z,12.63
2018-10-12T02:19:47.101Z,13.90
2018-10-12T02:22:15.885Z,12.40
2018-10-12T02:24:44.453Z,8.10
2018-10-12T02:27:13.222Z,11.13
2018-10-12T02:29:41.663Z,11.40
2018-10-12T02:32:10.474Z,12.53
2018-10-12T02:34:39.255Z,11.43
2018-10-12T02:37:08.028Z,10.80
2018-10-12T02:39:36.553Z,10.83
2018-10-12T02:42:05.248Z,7.87
2018-10-12T02:44:34.610Z,6.67
2018-10-12T02:47:04.102Z,6.67
2018-10-12T02:49:32.594Z,10.97
2018-10-12T02:52:01.173Z,8.97
2018-10-12T02:54:30.111Z,11.90
2018-10-12T02:56:59.414Z,8.33
2018-10-12T02:59:28.945Z,12.23
2018-10-12T03:01:57.525Z,10.13
2018-10-12T03:04:26.226Z,9.33
2018-10-12T03:06:55.182Z,8.90
2018-10-12T03:09:23.826Z,6.63
2018-10-12T03:11:53.308Z,6.77
2018-10-12T03:14:22.031Z,13.30
2018-10-12T03:16:50.624Z,9.37
2018-10-12T03:19:19.602Z,10.37
2018-10-12T03:21:48.943Z,13.00
2018-10-12T03:24:17.456Z,11.63
2018-10-12T03:26:45.942Z,8.00
2018-10-12T03:29:14.613Z,7.20
2018-10-12T03:31:43.402Z,7.90
2018-10-12T03:34:12.038Z,11.93
2018-10-12T03:36:40.705Z,8.93
2018-10-12T03:39:09.709Z,6.93
2018-10-12T03:41:38.251Z,6.80
2018-10-12T03:44:07.219Z,7.17
2018-10-12T03:46:36.126Z,8.03
2018-10-12T03:49:05.003Z,7.80
2018-10-12T03:51:34.230Z,6.20
2018-10-12T03:54:02.693Z,7.57
2018-10-12T03:56:31.282Z,5.50
2018-10-12T03:59:00.717Z,10.87
2018-10-12T04:01:29.381Z,9.67
2018-10-12T04:03:58.464Z,7.17
2018-10-12T04:06:28.080Z,7.90
2018-10-12T04:08:57.110Z,6.30
2018-10-12T04:11:25.919Z,9.57
2018-10-12T04:13:54.540Z,7.43
2018-10-12T04:16:23.341Z,6.17
2018-10-12T04:18:52.259Z,6.80
2018-10-12T04:21:22.097Z,5.53
2018-10-12T04:23:50.536Z,6.07
2018-10-12T04:26:19.522Z,7.67
2018-10-12T04:28:48.185Z,5.87
2018-10-12T04:31:17.098Z,5.77
2018-10-12T04:33:46.546Z,4.80
2018-10-12T04:36:15.329Z,4.97
2018-10-12T04:38:55.107Z,5.33
2018-10-12T04:41:24.304Z,12.30
2018-10-12T04:43:54.614Z,12.23
2018-10-12T04:46:27.109Z,12.60
2018-10-12T04:48:57.105Z,10.13
2018-10-12T04:52:01.832Z,12.00
2018-10-12T04:54:30.559Z,8.60
2018-10-12T04:56:59.021Z,9.77
2018-10-12T04:59:27.748Z,11.93
2018-10-12T05:01:56.260Z,11.67
2018-10-12T05:04:24.881Z,10.10
2018-10-12T05:06:54.558Z,9.07
2018-10-12T05:09:23.133Z,7.07
2018-10-12T05:11:51.845Z,5.73
2018-10-12T05:14:20.539Z,8.33
2018-10-12T05:16:49.234Z,9.27
2018-10-12T05:19:18.582Z,10.07
2018-10-12T05:21:47.308Z,12.37
2018-10-12T05:24:16.301Z,10.03
2018-10-12T05:26:45.027Z,12.33
2018-10-12T05:29:13.906Z,12.13
2018-10-12T05:31:42.857Z,11.90
2018-10-12T05:34:11.366Z,11.30
2018-10-12T05:36:40.055Z,11.53
2018-10-12T05:39:10.365Z,8.73
2018-10-12T05:41:39.048Z,8.60
2018-10-12T05:44:07.566Z,11.87
2018-10-12T05:46:36.973Z,6.67
2018-10-12T05:49:16.862Z,11.33
2018-10-12T05:51:45.516Z,12.97
2018-10-12T05:54:14.697Z,8.43
2018-10-12T05:56:43.417Z,7.03
2018-10-12T05:59:12.274Z,6.10
2018-10-12T06:01:40.978Z,5.60
2018-10-12T06:04:09.729Z,5.60
2018-10-12T06:06:38.382Z,8.33
2018-10-12T06:09:08.648Z,12.40
2018-10-12T06:11:37.296Z,13.40
2018-10-12T06:14:06.674Z,12.43
2018-10-12T06:16:35.185Z,11.10
2018-10-12T06:19:03.799Z,9.10
2018-10-12T06:21:32.608Z,7.27
2018-10-12T06:24:01.747Z,5.87
2018-10-12T06:26:30.310Z,12.77
2018-10-12T06:28:58.942Z,12.60
2018-10-12T06:31:27.582Z,11.33
2018-10-12T06:33:56.236Z,8.87
2018-10-12T06:36:24.776Z,6.80
2018-10-12T06:38:53.394Z,6.03
2018-10-12T06:41:23.023Z,11.80
2018-10-12T06:43:51.565Z,8.97
2018-10-12T06:46:20.434Z,12.17
2018-10-12T06:48:49.136Z,11.03
2018-10-12T06:51:17.633Z,11.40
2018-10-12T06:53:47.330Z,11.97
2018-10-12T06:56:16.578Z,9.47
2018-10-12T06:58:45.255Z,9.83
2018-10-12T07:01:14.186Z,9.20
2018-10-12T07:03:42.956Z,9.00
2018-10-12T07:06:11.885Z,10.10
2018-10-12T07:08:40.971Z,10.10
2018-10-12T07:11:10.164Z,8.37
2018-10-12T07:13:38.834Z,12.93
2018-10-12T07:16:07.430Z,10.97
2018-10-12T07:18:36.083Z,12.17
2018-10-12T07:21:04.804Z,11.23
2018-10-12T07:23:33.264Z,11.57
2018-10-12T07:26:02.852Z,9.40
2018-10-12T07:28:31.122Z,11.43
2018-10-12T07:30:59.962Z,11.27
2018-10-12T07:33:28.803Z,12.20
2018-10-12T07:35:57.752Z,11.53
2018-10-12T07:38:26.530Z,10.43
2018-10-12T07:40:55.839Z,11.70
2018-10-12T07:43:24.385Z,10.87
2018-10-12T07:45:52.980Z,11.87
2018-10-12T07:48:21.726Z,9.83
2018-10-12T07:50:50.380Z,10.57
2018-10-12T07:53:19.638Z,10.07
2018-10-12T07:55:48.294Z,10.97
2018-10-12T07:58:16.952Z,12.20
2018-10-12T08:00:45.842Z,8.30
2018-10-12T08:03:14.695Z,10.27
2018-10-12T08:05:43.201Z,11.93
2018-10-12T08:08:12.014Z,9.40
2018-10-12T08:10:40.880Z,10.73
2018-10-12T08:13:10.315Z,10.63
2018-10-12T08:15:38.985Z,11.23
2018-10-12T08:18:07.927Z,9.60
2018-10-12T08:20:36.526Z,10.03
2018-10-12T08:23:05.976Z,10.97
2018-10-12T08:25:34.724Z,8.87
2018-10-12T08:28:03.354Z,9.20
2018-10-12T08:30:31.992Z,10.30
2018-10-12T08:33:00.772Z,7.00
2018-10-12T08:35:29.449Z,7.40
2018-10-12T08:37:57.929Z,8.50
2018-10-12T08:40:26.675Z,9.67
2018-10-12T08:42:55.215Z,9.13
2018-10-12T08:45:24.536Z,7.70
2018-10-12T08:47:53.062Z,9.03
2018-10-12T08:50:21.768Z,7.70
2018-10-12T08:52:50.497Z,8.10
2018-10-12T08:55:19.063Z,7.57
2018-10-12T08:57:47.960Z,7.73
2018-10-12T09:00:16.593Z,6.10
2018-10-12T09:02:45.241Z,7.13
2018-10-12T09:05:13.855Z,6.93
2018-10-12T09:07:42.384Z,5.63
2018-10-12T09:10:11.589Z,6.10
2018-10-12T09:12:40.043Z,5.70
2018-10-12T09:15:08.841Z,5.97
2018-10-12T09:17:38.211Z,6.08
2018-10-12T09:20:07.812Z,6.47
2018-10-12T09:22:37.287Z,6.90
2018-10-12T09:25:05.854Z,5.35
2018-10-12T09:27:34.736Z,5.85
2018-10-12T09:30:03.350Z,6.95
2018-10-12T09:32:32.647Z,6.17
2018-10-12T09:35:01.462Z,6.17
2018-10-12T09:37:30.809Z,5.87
2018-10-12T09:39:59.844Z,6.37
2018-10-12T09:42:28.637Z,7.12
2018-10-12T09:44:57.441Z,8.38
2018-10-12T09:47:26.012Z,8.25
2018-10-12T09:49:54.604Z,7.97
2018-10-12T09:52:23.905Z,6.80
2018-10-12T09:54:52.570Z,8.03
2018-10-12T09:57:24.926Z,6.95
2018-10-12T09:59:53.867Z,7.37
2018-10-12T10:02:22.411Z,7.10
2018-10-12T10:04:50.803Z,6.28
2018-10-12T10:07:19.366Z,6.60
2018-10-12T10:09:47.942Z,6.80
2018-10-12T10:12:16.503Z,5.75
2018-10-12T10:14:45.085Z,6.72
2018-10-12T10:17:13.698Z,6.17
2018-10-12T10:19:42.499Z,4.70
2018-10-12T10:22:10.983Z,5.30
2018-10-12T10:24:39.540Z,5.25
2018-10-12T10:27:09.486Z,5.87
2018-10-12T10:29:38.042Z,5.08
2018-10-12T10:32:06.596Z,4.28
2018-10-12T10:34:35.704Z,4.40
2018-10-12T10:37:04.401Z,3.92
2018-10-12T10:39:32.860Z,4.05
2018-10-12T10:42:01.463Z,4.33
2018-10-12T10:44:30.010Z,3.90
2018-10-12T10:46:58.976Z,3.87
2018-10-12T10:49:27.456Z,3.47
2018-10-12T10:51:56.042Z,3.75
2018-10-12T10:54:24.545Z,3.58
2018-10-12T10:56:57.236Z,3.98
2018-10-12T10:59:25.710Z,2.98
2018-10-12T11:01:54.217Z,3.25
2018-10-12T11:04:22.702Z,3.90
2018-10-12T11:06:51.228Z,2.80
2018-10-12T11:09:19.798Z,3.22
2018-10-12T11:11:48.382Z,3.08
2018-10-12T11:14:17.614Z,2.33
2018-10-12T11:16:46.935Z,2.90
2018-10-12T11:19:15.461Z,2.27
2018-10-12T11:21:44.036Z,2.85
2018-10-12T11:24:12.513Z,2.22
2018-10-12T11:26:41.017Z,3.08
2018-10-12T11:29:09.822Z,2.72
2018-10-12T11:31:38.968Z,2.00
2018-10-12T11:34:07.658Z,2.77
2018-10-12T11:36:36.155Z,2.33
2018-10-12T11:39:10.008Z,2.80
2018-10-12T11:41:38.555Z,3.20
2018-10-12T11:44:07.074Z,2.92
2018-10-12T11:46:35.558Z,2.67
2018-10-12T11:49:04.133Z,2.90
2018-10-12T11:51:32.661Z,3.40
2018-10-12T11:54:01.504Z,2.60
2018-10-12T11:56:30.509Z,2.70
2018-10-12T11:58:58.975Z,3.17
2018-10-12T12:01:28.274Z,3.02
2018-10-12T12:03:56.842Z,2.35
2018-10-12T12:06:25.331Z,2.52
2018-10-12T12:08:54.067Z,2.62
2018-10-12T12:11:22.925Z,2.10
2018-10-12T12:13:51.575Z,2.65
2018-10-12T12:16:20.180Z,2.12
2018-10-12T12:18:48.753Z,2.15
2018-10-12T12:21:17.328Z,2.35
2018-10-12T12:23:45.931Z,2.60
2018-10-12T12:26:14.529Z,2.77
2018-10-12T12:28:43.041Z,2.77
2018-10-12T12:31:11.533Z,2.20
2018-10-12T12:33:40.048Z,3.00
2018-10-12T12:36:11.900Z,2.22
2018-10-12T12:38:40.245Z,2.52
2018-10-12T12:41:08.799Z,2.45
2018-10-12T12:43:37.425Z,2.85
2018-10-12T12:46:06.000Z,1.98
2018-10-12T12:48:34.872Z,2.47
2018-10-12T12:51:03.143Z,1.57
2018-10-12T12:53:31.669Z,2.50
2018-10-12T12:56:00.143Z,2.20
2018-10-12T12:58:28.674Z,2.45
2018-10-12T13:00:57.186Z,2.58
2018-10-12T13:03:26.204Z,2.70
2018-10-12T13:05:54.745Z,2.33
2018-10-12T13:08:23.257Z,2.70
2018-10-12T13:10:51.725Z,2.15
2018-10-12T13:13:20.787Z,2.20
2018-10-12T13:15:49.301Z,2.30
2018-10-12T13:18:18.447Z,2.35
2018-10-12T13:20:47.082Z,2.62
2018-10-12T13:23:15.610Z,2.62
2018-10-12T13:25:44.227Z,1.80
2018-10-12T13:28:12.765Z,2.40
2018-10-12T13:30:41.270Z,1.80
2018-10-12T13:33:09.769Z,2.30
2018-10-12T13:35:38.336Z,1.80
2018-10-12T13:38:07.023Z,1.62
2018-10-12T13:40:35.471Z,1.42
2018-10-12T13:43:04.131Z,1.32
2018-10-12T13:45:32.624Z,1.77
2018-10-12T13:48:01.157Z,2.33
2018-10-12T13:50:29.689Z,2.10
2018-10-12T13:52:58.255Z,2.12
2018-10-12T13:55:26.986Z,1.85
2018-10-12T13:57:55.466Z,1.45
2018-10-12T14:00:24.587Z,2.52
2018-10-12T14:02:53.099Z,1.85
2018-10-12T14:05:21.710Z,1.80
2018-10-12T14:07:50.247Z,2.37
2018-10-12T14:10:18.831Z,2.30
2018-10-12T14:12:47.685Z,1.90
2018-10-12T14:15:16.556Z,1.90
2018-10-12T14:17:45.177Z,2.55
2018-10-12T14:20:14.476Z,2.08
2018-10-12T14:22:43.151Z,2.47
2018-10-12T14:25:12.598Z,2.20
2018-10-12T14:27:41.960Z,2.25
2018-10-12T14:30:10.492Z,2.30
2018-10-12T14:32:39.035Z,2.08
2018-10-12T14:35:07.639Z,1.62
2018-10-12T14:37:36.161Z,2.27
2018-10-12T14:40:04.663Z,2.55
2018-10-12T14:42:33.416Z,2.05
2018-10-12T14:45:01.975Z,2.00
2018-10-12T14:47:30.541Z,2.02
2018-10-12T14:49:59.082Z,1.42
2018-10-12T14:52:27.799Z,2.10
2018-10-12T14:54:56.552Z,1.95
2018-10-12T14:57:25.074Z,1.57
2018-10-12T14:59:53.685Z,2.15
2018-10-12T15:02:22.299Z,1.10
2018-10-12T15:04:51.221Z,1.72
2018-10-12T15:07:19.870Z,1.20
2018-10-12T15:09:48.705Z,2.60
2018-10-12T15:12:17.340Z,2.55
2018-10-12T15:14:58.225Z,2.37
2018-10-12T15:17:27.391Z,2.22
2018-10-12T15:19:56.150Z,1.42
2018-10-12T15:22:24.750Z,1.62
2018-10-12T15:24:53.238Z,1.70
2018-10-12T15:27:22.028Z,1.80
2018-10-12T15:29:51.185Z,1.72
2018-10-12T15:32:19.759Z,1.20
2018-10-12T15:34:48.608Z,1.92
2018-10-12T15:37:17.529Z,2.00
2018-10-12T15:39:46.004Z,1.50
2018-10-12T15:42:14.578Z,1.92
2018-10-12T15:44:43.183Z,2.10
2018-10-12T15:47:11.879Z,1.82
2018-10-12T15:49:40.452Z,1.55
2018-10-12T15:52:09.228Z,1.30
2018-10-12T15:54:37.868Z,1.17
2018-10-12T15:57:06.477Z,1.57
2018-10-12T15:59:35.150Z,1.40
2018-10-12T16:02:04.530Z,1.57
2018-10-12T16:04:33.066Z,2.05
2018-10-12T16:07:01.772Z,1.42
2018-10-12T16:09:30.276Z,1.40
2018-10-12T16:11:59.121Z,2.22
2018-10-12T16:14:27.834Z,2.55
2018-10-12T16:16:56.389Z,2.05
2018-10-12T16:19:25.054Z,2.10
2018-10-12T16:21:53.634Z,2.08
2018-10-12T16:24:22.267Z,2.55
2018-10-12T16:26:50.985Z,1.62
2018-10-12T16:29:19.538Z,1.80
2018-10-12T16:31:48.125Z,0.90
2018-10-12T16:34:17.323Z,1.17
2018-10-12T16:36:46.007Z,2.27
2018-10-12T16:39:14.714Z,2.52
2018-10-12T16:41:43.421Z,2.30
2018-10-12T16:44:11.961Z,2.47
2018-10-12T16:46:40.526Z,2.42
2018-10-12T16:49:09.864Z,1.90
2018-10-12T16:51:38.337Z,2.02
2018-10-12T16:54:07.088Z,2.65
2018-10-12T16:56:35.586Z,3.00
2018-10-12T16:59:04.111Z,2.33
2018-10-12T17:01:32.735Z,2.90
2018-10-12T17:04:01.281Z,2.12
2018-10-12T17:06:29.784Z,1.35
2018-10-12T17:08:58.314Z,1.30
2018-10-12T17:11:26.776Z,2.00
2018-10-12T17:13:55.257Z,1.57
2018-10-12T17:16:23.856Z,2.47
2018-10-12T17:18:52.424Z,2.47
2018-10-12T17:21:21.035Z,2.93
2018-10-12T17:23:49.590Z,1.73
2018-10-12T17:26:18.249Z,2.03
2018-10-12T17:28:46.882Z,1.80
2018-10-12T17:31:15.603Z,4.97
2018-10-12T17:33:44.131Z,5.40
2018-10-12T17:36:12.679Z,4.57
2018-10-12T17:38:41.165Z,4.13
2018-10-12T17:41:15.249Z,2.70
2018-10-12T17:43:43.890Z,3.00
2018-10-12T17:46:12.597Z,2.40
2018-10-12T17:48:41.256Z,4.77
2018-10-12T17:51:10.774Z,2.90
2018-10-12T17:53:39.605Z,5.43
2018-10-12T17:56:08.185Z,5.67
2018-10-12T17:58:36.716Z,6.60
2018-10-12T18:01:06.011Z,6.27
2018-10-12T18:03:34.680Z,4.30
2018-10-12T18:06:05.122Z,7.77
2018-10-12T18:08:33.838Z,5.90
2018-10-12T18:11:02.509Z,7.33
2018-10-12T18:13:31.111Z,8.70
2018-10-12T18:16:00.661Z,7.70
2018-10-12T18:18:29.375Z,10.10
2018-10-12T18:20:58.374Z,6.83
2018-10-12T18:23:26.941Z,8.43
2018-10-12T18:25:56.150Z,5.80
2018-10-12T18:28:24.649Z,5.07
2018-10-12T18:30:53.234Z,5.60
2018-10-12T18:33:22.691Z,6.97
2018-10-12T18:35:51.567Z,5.80
2018-10-12T18:38:20.158Z,8.57
2018-10-12T18:40:48.870Z,6.27
2018-10-12T18:43:17.547Z,6.37
2018-10-12T18:45:46.236Z,10.00
2018-10-12T18:48:14.934Z,9.83
2018-10-12T18:50:43.708Z,10.13
2018-10-12T18:53:12.666Z,9.73
2018-10-12T18:55:41.462Z,8.70
2018-10-12T18:58:10.376Z,7.67
2018-10-12T19:00:39.039Z,6.43
2018-10-12T19:03:07.715Z,6.90
2018-10-12T19:05:36.481Z,10.50
2018-10-12T19:08:08.946Z,11.53
2018-10-12T19:10:38.108Z,13.07
2018-10-12T19:13:07.511Z,10.40
2018-10-12T19:16:42.852Z,7.60
2018-10-12T19:19:11.631Z,7.23
2018-10-12T19:21:40.273Z,6.10
2018-10-12T19:24:09.295Z,6.10
2018-10-12T19:26:37.940Z,6.60
2018-10-12T19:29:06.922Z,6.60
2018-10-12T19:31:35.718Z,7.30
2018-10-12T19:34:04.351Z,9.30
2018-10-12T19:36:33.148Z,9.10
2018-10-12T19:39:01.833Z,6.73
2018-10-12T19:41:31.148Z,7.53
2018-10-12T19:43:59.709Z,9.60
2018-10-12T19:46:28.249Z,6.97
2018-10-12T19:48:56.804Z,11.33
2018-10-12T19:51:25.535Z,9.53
2018-10-12T19:53:54.321Z,11.03
2018-10-12T19:56:23.534Z,7.80
2018-10-12T19:58:52.238Z,10.47
2018-10-12T20:01:20.930Z,27.03
2018-10-12T20:03:49.446Z,15.33
2018-10-12T20:06:18.090Z,19.73
2018-10-12T20:08:47.546Z,22.13
2018-10-12T20:11:16.288Z,14.77
2018-10-12T20:13:44.993Z,17.50
2018-10-12T20:16:13.609Z,15.90
2018-10-12T20:18:42.356Z,12.43
2018-10-12T20:21:11.012Z,12.03
2018-10-12T20:23:39.755Z,8.07
2018-10-12T20:26:08.343Z,10.10
2018-10-12T20:28:37.139Z,8.73
2018-10-12T20:31:06.024Z,6.73
2018-10-12T20:33:34.586Z,6.90
2018-10-12T20:36:03.137Z,5.77
2018-10-12T20:38:32.090Z,5.70
2018-10-12T20:41:00.590Z,8.93
2018-10-12T20:43:29.134Z,8.50
2018-10-12T20:45:57.858Z,7.73
2018-10-12T20:48:26.854Z,6.00
2018-10-12T20:50:55.449Z,5.33
2018-10-12T20:53:23.972Z,4.97
2018-10-12T20:55:52.945Z,5.47
2018-10-12T20:58:22.044Z,5.77
2018-10-12T21:00:51.293Z,6.07
2018-10-12T21:03:19.905Z,5.37
2018-10-12T21:05:48.820Z,4.97
2018-10-12T21:08:17.356Z,7.23
2018-10-12T21:10:45.958Z,5.47
2018-10-12T21:13:14.560Z,4.70
2018-10-12T21:15:43.090Z,9.90
2018-10-12T21:18:12.021Z,7.40
2018-10-12T21:20:40.623Z,6.63
2018-10-12T21:23:09.287Z,11.23
2018-10-12T21:25:37.969Z,21.57
2018-10-12T21:28:06.578Z,20.00
2018-10-12T21:30:35.169Z,18.67
2018-10-12T21:33:03.596Z,16.33
2018-10-12T21:35:32.310Z,13.17
2018-10-12T21:38:00.917Z,22.57
2018-10-12T21:40:29.549Z,18.23
2018-10-12T21:42:58.114Z,17.57
2018-10-12T21:45:26.622Z,15.80
2018-10-12T21:47:55.513Z,10.90
2018-10-12T21:50:24.238Z,15.33
2018-10-12T21:52:52.689Z,13.77
2018-10-12T21:55:21.472Z,8.93
2018-10-12T21:57:50.117Z,7.77
2018-10-12T22:00:18.562Z,8.53
2018-10-12T22:02:47.161Z,7.23
2018-10-12T22:05:15.906Z,7.57
2018-10-12T22:07:44.605Z,12.93
2018-10-12T22:10:13.297Z,15.67
2018-10-12T22:12:42.722Z,13.37
2018-10-12T22:15:11.367Z,11.80
2018-10-12T22:17:40.134Z,10.37
2018-10-12T22:20:09.512Z,8.90
2018-10-12T22:22:38.065Z,8.53
2018-10-12T22:25:06.833Z,8.13
2018-10-12T22:27:35.999Z,9.07
2018-10-12T22:30:04.849Z,9.27
2018-10-12T22:32:34.052Z,10.20
2018-10-12T22:35:03.801Z,11.50
2018-10-12T22:37:32.407Z,13.37
2018-10-12T22:40:01.815Z,12.80
2018-10-12T22:42:30.731Z,9.60
2018-10-12T22:44:59.291Z,11.43
2018-10-12T22:47:28.157Z,13.60
2018-10-12T22:49:56.858Z,10.17
2018-10-12T22:52:26.019Z,10.87
2018-10-12T22:54:54.595Z,12.13
2018-10-12T22:57:23.067Z,8.57
2018-10-12T22:59:51.683Z,12.70
2018-10-12T23:02:20.579Z,14.07
2018-10-12T23:04:49.535Z,8.70
2018-10-12T23:07:18.515Z,7.40
2018-10-12T23:09:48.347Z,10.60
2018-10-12T23:12:17.647Z,12.23
2018-10-12T23:14:46.146Z,10.17
2018-10-12T23:17:15.342Z,8.70
2018-10-12T23:19:43.975Z,6.47
2018-10-12T23:22:12.850Z,5.63
2018-10-12T23:24:48.622Z,8.10
2018-10-12T23:27:17.311Z,10.13
2018-10-12T23:29:46.451Z,7.43
2018-10-12T23:32:15.087Z,6.07
2018-10-12T23:34:44.045Z,5.67
2018-10-12T23:37:13.228Z,5.50
2018-10-12T23:39:41.926Z,7.20
2018-10-12T23:42:10.441Z,6.57
2018-10-12T23:44:39.201Z,6.27
2018-10-12T23:47:08.627Z,7.33
2018-10-12T23:49:37.236Z,5.50
2018-10-12T23:52:06.532Z,5.43
2018-10-12T23:54:35.524Z,6.07
2018-10-12T23:57:04.518Z,11.43
2018-10-12T23:59:33.018Z,9.40
